GEC8262 EDDF-GOBD
Flight info
| Callsign | GEC8262 |
|---|---|
| Flight time | N/A |
| Altitude | 29000 |
| Route | ANEKI2L/18 ANEKI Y163 HERBI/N0478F310 Y164 OLBEN N869 NINTU DCT PIMAK DCT TITVA DCT GAI DCT PERDU DCT EXEMU N869 NASOS L27 BLN N869 MGA/N0476F330 M985 PIMOS N869 GALTO UN869 SLK UB11 PELAX UN869 ADM UR975 DIDAN/N0479F320 UR975 BIMOG/N0482F340 UR975 SAKLI SAKLI1A |
| Aircraft | MD11/H-SDE1E2E3FGHIJ2J3J4J5M1RWXY/LB1D1 |
Departure
| Time | 2026-04-13 14:48 |
|---|---|
| Airport | Frankfurt Main Airport (EDDF) |
Arrival
| Time | N/A |
|---|---|
| Airport | Blaise Diagne International Airport (GOBD) |
| Time | Latitude | Longitude | Altitude | Speed | Heading |
|---|---|---|---|---|---|
| 2026-04-13 14:03 | 50.04120 | 8.54734 | 359 ft | 0 kts | 71° |
| 2026-04-13 14:03 | 50.04122 | 8.54740 | 367 ft | 0 kts | 69° |
| 2026-04-13 14:37 | 50.04114 | 8.54705 | 361 ft | 4 kts | 70° |
| 2026-04-13 14:37 | 50.04104 | 8.54667 | 363 ft | 4 kts | 74° |
| 2026-04-13 14:38 | 50.04101 | 8.54634 | 363 ft | 4 kts | 116° |
| 2026-04-13 14:38 | 50.04112 | 8.54613 | 366 ft | 2 kts | 159° |
| 2026-04-13 14:38 | 50.04099 | 8.54620 | 362 ft | 4 kts | 159° |
| 2026-04-13 14:38 | 50.04073 | 8.54635 | 362 ft | 4 kts | 159° |
| 2026-04-13 14:39 | 50.04048 | 8.54649 | 364 ft | 4 kts | 159° |
| 2026-04-13 14:39 | 50.04027 | 8.54661 | 359 ft | 0 kts | 159° |
| 2026-04-13 14:43 | 50.04024 | 8.54663 | 361 ft | 1 kts | 159° |
| 2026-04-13 14:43 | 50.04014 | 8.54669 | 361 ft | 2 kts | 159° |
| 2026-04-13 14:44 | 50.03974 | 8.54692 | 364 ft | 9 kts | 161° |
| 2026-04-13 14:44 | 50.03943 | 8.54672 | 364 ft | 6 kts | 226° |
| 2026-04-13 14:44 | 50.03914 | 8.54576 | 360 ft | 14 kts | 249° |
| 2026-04-13 14:44 | 50.03869 | 8.54396 | 360 ft | 22 kts | 246° |
| 2026-04-13 14:45 | 50.03799 | 8.54219 | 360 ft | 16 kts | 249° |
| 2026-04-13 14:45 | 50.03760 | 8.54054 | 358 ft | 16 kts | 249° |
| 2026-04-13 14:45 | 50.03720 | 8.53889 | 359 ft | 16 kts | 249° |
| 2026-04-13 14:45 | 50.03680 | 8.53720 | 358 ft | 17 kts | 250° |
| 2026-04-13 14:46 | 50.03637 | 8.53551 | 353 ft | 17 kts | 248° |
| 2026-04-13 14:46 | 50.03596 | 8.53381 | 353 ft | 17 kts | 250° |
| 2026-04-13 14:46 | 50.03555 | 8.53209 | 350 ft | 17 kts | 250° |
| 2026-04-13 14:46 | 50.03513 | 8.53035 | 354 ft | 17 kts | 249° |
| 2026-04-13 14:47 | 50.03473 | 8.52874 | 353 ft | 13 kts | 246° |
| 2026-04-13 14:47 | 50.03438 | 8.52747 | 352 ft | 13 kts | 249° |
| 2026-04-13 14:47 | 50.03407 | 8.52623 | 349 ft | 8 kts | 248° |
| 2026-04-13 14:47 | 50.03381 | 8.52596 | 350 ft | 5 kts | 194° |
| 2026-04-13 14:48 | 50.03325 | 8.52594 | 348 ft | 18 kts | 180° |
| 2026-04-13 14:48 | 50.02844 | 8.52598 | 348 ft | 124 kts | 179° |
| 2026-04-13 14:48 | 50.01685 | 8.52613 | 429 ft | 196 kts | 180° |
| 2026-04-13 14:48 | 50.00329 | 8.52636 | 1494 ft | 198 kts | 180° |
| 2026-04-13 14:49 | 49.98918 | 8.52675 | 2630 ft | 205 kts | 179° |
| 2026-04-13 14:49 | 49.97489 | 8.52762 | 3761 ft | 210 kts | 178° |
| 2026-04-13 14:49 | 49.95953 | 8.52883 | 4498 ft | 227 kts | 178° |
| 2026-04-13 14:49 | 49.94345 | 8.53037 | 5342 ft | 241 kts | 176° |
| 2026-04-13 14:50 | 49.92662 | 8.53224 | 6388 ft | 237 kts | 176° |
| 2026-04-13 14:50 | 49.91071 | 8.53366 | 7646 ft | 228 kts | 177° |
| 2026-04-13 14:50 | 49.89421 | 8.53487 | 8292 ft | 249 kts | 177° |
| 2026-04-13 14:50 | 49.87584 | 8.53616 | 8954 ft | 275 kts | 177° |
| 2026-04-13 14:51 | 49.85694 | 8.53733 | 10403 ft | 264 kts | 177° |
| 2026-04-13 14:51 | 49.83822 | 8.53844 | 11476 ft | 276 kts | 177° |
| 2026-04-13 14:51 | 49.81894 | 8.53960 | 12604 ft | 281 kts | 178° |
| 2026-04-13 14:51 | 49.79921 | 8.54081 | 13713 ft | 287 kts | 178° |
| 2026-04-13 14:52 | 49.77934 | 8.54104 | 14707 ft | 292 kts | 182° |
| 2026-04-13 14:52 | 49.75797 | 8.53910 | 15029 ft | 326 kts | 184° |
| 2026-04-13 14:52 | 49.73418 | 8.53604 | 15170 ft | 359 kts | 185° |
| 2026-04-13 14:52 | 49.70887 | 8.53251 | 15844 ft | 369 kts | 185° |
| 2026-04-13 14:53 | 49.68314 | 8.52892 | 16780 ft | 373 kts | 185° |
| 2026-04-13 14:53 | 49.65713 | 8.52534 | 17715 ft | 377 kts | 185° |
| 2026-04-13 14:53 | 49.63085 | 8.52178 | 18582 ft | 381 kts | 185° |
| 2026-04-13 14:53 | 49.60433 | 8.51823 | 19360 ft | 384 kts | 185° |
| 2026-04-13 14:54 | 49.57764 | 8.51468 | 20139 ft | 387 kts | 185° |
| 2026-04-13 14:54 | 49.55070 | 8.51111 | 20915 ft | 390 kts | 185° |
| 2026-04-13 14:54 | 49.52392 | 8.50757 | 21695 ft | 393 kts | 185° |
| 2026-04-13 14:54 | 49.49655 | 8.50397 | 22500 ft | 396 kts | 185° |
| 2026-04-13 14:55 | 49.46896 | 8.50034 | 23315 ft | 400 kts | 185° |
| 2026-04-13 14:55 | 49.44113 | 8.49668 | 24019 ft | 404 kts | 185° |
| 2026-04-13 14:55 | 49.41292 | 8.49298 | 24645 ft | 409 kts | 185° |
| 2026-04-13 14:55 | 49.38439 | 8.48924 | 25324 ft | 414 kts | 185° |
| 2026-04-13 14:56 | 49.35555 | 8.48546 | 26004 ft | 418 kts | 185° |
| 2026-04-13 14:56 | 49.32641 | 8.48165 | 26682 ft | 423 kts | 185° |
| 2026-04-13 14:56 | 49.29727 | 8.47787 | 27341 ft | 428 kts | 185° |
| 2026-04-13 14:56 | 49.26738 | 8.47400 | 27808 ft | 433 kts | 185° |
| 2026-04-13 14:57 | 49.23726 | 8.47008 | 28206 ft | 436 kts | 185° |
| 2026-04-13 14:57 | 49.20696 | 8.46613 | 28610 ft | 439 kts | 185° |
| 2026-04-13 14:57 | 49.17645 | 8.46216 | 28857 ft | 442 kts | 185° |
| 2026-04-13 14:58 | 49.11579 | 8.45426 | 28913 ft | 433 kts | 185° |
| 2026-04-13 14:58 | 49.05603 | 8.44486 | 28914 ft | 432 kts | 189° |
| 2026-04-13 14:59 | 48.99759 | 8.42623 | 28923 ft | 432 kts | 192° |
| 2026-04-13 14:59 | 48.93912 | 8.40495 | 28934 ft | 432 kts | 192° |
| 2026-04-13 15:00 | 48.88052 | 8.38401 | 28926 ft | 432 kts | 192° |
| 2026-04-13 15:00 | 48.82191 | 8.36351 | 28937 ft | 432 kts | 192° |
| 2026-04-13 15:01 | 48.76378 | 8.34298 | 28937 ft | 432 kts | 192° |
| 2026-04-13 15:01 | 48.70527 | 8.32166 | 28935 ft | 432 kts | 193° |
| 2026-04-13 15:02 | 48.64689 | 8.30031 | 28928 ft | 432 kts | 193° |
| 2026-04-13 15:02 | 48.58843 | 8.27901 | 28929 ft | 432 kts | 193° |
| 2026-04-13 15:03 | 48.53041 | 8.25794 | 28930 ft | 432 kts | 193° |
| 2026-04-13 15:03 | 48.47195 | 8.23670 | 28928 ft | 432 kts | 193° |
| 2026-04-13 15:04 | 48.41352 | 8.21534 | 28932 ft | 432 kts | 193° |
| 2026-04-13 15:04 | 48.35511 | 8.19395 | 28936 ft | 432 kts | 193° |
| 2026-04-13 15:05 | 48.29710 | 8.17277 | 28932 ft | 432 kts | 193° |
| 2026-04-13 15:05 | 48.23885 | 8.15078 | 28930 ft | 432 kts | 195° |
| 2026-04-13 15:06 | 48.18206 | 8.12089 | 28928 ft | 433 kts | 200° |
| 2026-04-13 15:06 | 48.12599 | 8.08820 | 28933 ft | 433 kts | 200° |
| 2026-04-13 15:07 | 48.06980 | 8.05569 | 28931 ft | 433 kts | 200° |
| 2026-04-13 15:07 | 48.01391 | 8.02383 | 28924 ft | 433 kts | 199° |
| 2026-04-13 15:08 | 47.95760 | 7.99193 | 28927 ft | 433 kts | 199° |
| 2026-04-13 15:08 | 47.90127 | 7.96012 | 28932 ft | 433 kts | 199° |
| 2026-04-13 15:09 | 47.84487 | 7.92834 | 28935 ft | 433 kts | 199° |
| 2026-04-13 15:09 | 47.78849 | 7.89664 | 28932 ft | 433 kts | 199° |
| 2026-04-13 15:10 | 47.73247 | 7.86521 | 28935 ft | 434 kts | 199° |
| 2026-04-13 15:10 | 47.67590 | 7.83356 | 28941 ft | 435 kts | 199° |
| 2026-04-13 15:11 | 47.61919 | 7.80189 | 28938 ft | 435 kts | 199° |
| 2026-04-13 15:11 | 47.56253 | 7.77033 | 28934 ft | 435 kts | 199° |
| 2026-04-13 15:12 | 47.50574 | 7.73876 | 28939 ft | 437 kts | 199° |
| 2026-04-13 15:12 | 47.44906 | 7.70740 | 28936 ft | 438 kts | 199° |
| 2026-04-13 15:13 | 47.39199 | 7.67607 | 28934 ft | 438 kts | 199° |
| 2026-04-13 15:13 | 47.33489 | 7.64462 | 28923 ft | 438 kts | 200° |
| 2026-04-13 15:14 | 47.28288 | 7.59802 | 28930 ft | 444 kts | 223° |
| 2026-04-13 15:14 | 47.24418 | 7.52731 | 28915 ft | 448 kts | 232° |
| 2026-04-13 15:15 | 47.20778 | 7.45288 | 28900 ft | 448 kts | 231° |
| 2026-04-13 15:15 | 47.17024 | 7.38031 | 28910 ft | 444 kts | 230° |
| 2026-04-13 15:16 | 47.13197 | 7.30921 | 28911 ft | 444 kts | 230° |
| 2026-04-13 15:16 | 47.09367 | 7.23875 | 28914 ft | 444 kts | 230° |
| 2026-04-13 15:17 | 47.05509 | 7.16790 | 28909 ft | 444 kts | 230° |
| 2026-04-13 15:17 | 47.01646 | 7.09717 | 28912 ft | 444 kts | 230° |
| 2026-04-13 15:18 | 46.97784 | 7.02655 | 28915 ft | 444 kts | 230° |
| 2026-04-13 15:18 | 46.93940 | 6.95638 | 28948 ft | 447 kts | 230° |
| 2026-04-13 15:18 | 46.91992 | 6.92088 | 29788 ft | 444 kts | 230° |
| 2026-04-13 15:19 | 46.90063 | 6.88584 | 30610 ft | 442 kts | 230° |
| 2026-04-13 15:19 | 46.88135 | 6.85089 | 31354 ft | 440 kts | 230° |
| 2026-04-13 15:19 | 46.86221 | 6.81624 | 32070 ft | 438 kts | 230° |
| 2026-04-13 15:19 | 46.84307 | 6.78160 | 32664 ft | 440 kts | 230° |
| 2026-04-13 15:20 | 46.82395 | 6.74700 | 33063 ft | 437 kts | 230° |
| 2026-04-13 15:20 | 46.80490 | 6.71256 | 33472 ft | 435 kts | 230° |
| 2026-04-13 15:20 | 46.78587 | 6.67819 | 33826 ft | 435 kts | 230° |
| 2026-04-13 15:21 | 46.74810 | 6.61010 | 33911 ft | 435 kts | 230° |
| 2026-04-13 15:21 | 46.70930 | 6.54252 | 33918 ft | 434 kts | 228° |
| 2026-04-13 15:22 | 46.66935 | 6.47652 | 33934 ft | 433 kts | 227° |
| 2026-04-13 15:22 | 46.62948 | 6.41102 | 33926 ft | 431 kts | 227° |
| 2026-04-13 15:23 | 46.58973 | 6.34564 | 33919 ft | 432 kts | 227° |
| 2026-04-13 15:23 | 46.55032 | 6.28082 | 33934 ft | 431 kts | 227° |
| 2026-04-13 15:24 | 46.51053 | 6.21553 | 33936 ft | 431 kts | 227° |
| 2026-04-13 15:24 | 46.47073 | 6.15037 | 33931 ft | 432 kts | 227° |
| 2026-04-13 15:25 | 46.43090 | 6.08532 | 33948 ft | 431 kts | 227° |
| 2026-04-13 15:25 | 46.39126 | 6.02073 | 33952 ft | 432 kts | 227° |
| 2026-04-13 15:26 | 46.35144 | 5.95601 | 33942 ft | 429 kts | 227° |
| 2026-04-13 15:26 | 46.31171 | 5.89159 | 33945 ft | 429 kts | 227° |
| 2026-04-13 15:27 | 46.27487 | 5.82373 | 33950 ft | 430 kts | 233° |
| 2026-04-13 15:27 | 46.24140 | 5.75279 | 33959 ft | 430 kts | 234° |
| 2026-04-13 15:28 | 46.20798 | 5.68113 | 33965 ft | 430 kts | 234° |
| 2026-04-13 15:28 | 46.17438 | 5.60987 | 33974 ft | 429 kts | 234° |
| 2026-04-13 15:29 | 46.14056 | 5.53881 | 33985 ft | 430 kts | 234° |
| 2026-04-13 15:29 | 46.10674 | 5.46830 | 33980 ft | 430 kts | 234° |
| 2026-04-13 15:30 | 46.07268 | 5.39737 | 33989 ft | 435 kts | 234° |
| 2026-04-13 15:30 | 46.05521 | 5.36104 | 34004 ft | 448 kts | 234° |
| 2026-04-13 15:30 | 46.03734 | 5.32390 | 34004 ft | 453 kts | 234° |
| 2026-04-13 15:31 | 46.00136 | 5.24917 | 34004 ft | 454 kts | 234° |
| 2026-04-13 15:31 | 45.96532 | 5.17454 | 34004 ft | 455 kts | 234° |
| 2026-04-13 15:32 | 45.92948 | 5.10053 | 34010 ft | 453 kts | 234° |
| 2026-04-13 15:32 | 45.89350 | 5.02642 | 34008 ft | 452 kts | 234° |
| 2026-04-13 15:33 | 45.85747 | 4.95242 | 34004 ft | 452 kts | 234° |
| 2026-04-13 15:33 | 45.82140 | 4.87851 | 34007 ft | 453 kts | 234° |